DK8PN Weather Reports


Display with metric or nautical units.
time (UTC)temp
F
wind
direction
speed
MPH
gust
MPH
rain 1hr
in
rain 24hr
in
rain mn
in
humidity
%
barometer
mb
20210614184505 77 53 0.0 0.0 0.00 0.00 0.00 48 1018.5
20210614183001 77 59 0.0 2.0 0.00 0.00 0.00 49 1018.5
20210614181648 79 308 0.0 3.0 0.00 0.00 0.00 46 1018.5
20210614180255 79 289 0.0 4.0 0.00 0.00 0.00 45 1018.5
20210614174607 80 320 0.0 2.0 0.00 0.00 0.00 44 1018.5
20210614173132 80 296 1.0 5.0 0.00 0.00 0.00 43 1018.6
20210614171643 81 261 1.0 7.0 0.00 0.00 0.00 41 1018.5
20210614170111 81 296 0.0 5.0 0.00 0.00 0.00 38 1018.6
20210614164605 82 256 0.0 4.0 0.00 0.00 0.00 37 1018.6
20210614163239 83 318 0.0 0.0 0.00 0.00 0.00 35 1018.5
20210614161544 81 360 0.0 3.0 0.00 0.00 0.00 37 1018.6
20210614160059 81 306 0.0 6.0 0.00 0.00 0.00 37 1018.8
20210614154637 82 285 1.0 6.0 0.00 0.00 0.00 37 1019.1
20210614153055 80 60 2.0 6.0 0.00 0.00 0.00 38 1019.1
20210614151607 80 67 0.0 8.0 0.00 0.00 0.00 37 1019.3
20210614150102 81 323 3.0 6.0 0.00 0.00 0.00 37 1019.4
20210614144608 82 44 0.0 7.0 0.00 0.00 0.00 36 1019.6
20210614143036 80 103 0.0 2.0 0.00 0.00 0.00 36 1019.7
20210614141529 80 68 0.0 5.0 0.00 0.00 0.00 36 1019.8
20210614140108 79 338 2.0 9.0 0.00 0.00 0.00 36 1019.9
20210614134604 80 269 0.0 6.0 0.00 0.00 0.00 36 1020.0
20210614133024 79 29 0.0 6.0 0.00 0.00 0.00 37 1020.2
20210614131534 80 68 0.0 1.0 0.00 0.00 0.00 36 1020.4
20210614130019 80 300 0.0 0.0 0.00 0.00 0.00 35 1020.4
20210614124631 79 93 0.0 7.0 0.00 0.00 0.00 37 1020.6
20210614123012 78 153 0.0 3.0 0.00 0.00 0.00 38 1020.7
20210614121548 79 19 0.0 8.0 0.00 0.00 0.00 37 1020.8
20210614120034 77 40 0.0 6.0 0.00 0.00 0.00 38 1020.9
20210614114507 77 157 0.0 7.0 0.00 0.00 0.00 40 1021.1
20210614113005 76 102 0.0 7.0 0.00 0.00 0.00 41 1021.4
20210614111503 77 32 0.0 7.0 0.00 0.00 0.00 40 1021.5
20210614110210 76 143 0.0 4.0 0.00 0.00 0.00 41 1021.6
20210614104638 75 155 2.0 10.0 0.00 0.00 0.00 43 1021.9
20210614103215 74 37 1.0 8.0 0.00 0.00 0.00 43 1022.1
20210614101615 74 67 1.0 7.0 0.00 0.00 0.00 43 1022.2
20210614100114 75 115 0.0 6.0 0.00 0.00 0.00 44 1022.5
20210614094643 73 71 0.0 8.0 0.00 0.00 0.00 46 1022.6
20210614093108 72 117 1.0 9.0 0.00 0.00 0.00 45 1022.8
20210614091555 72 103 2.0 9.0 0.00 0.00 0.00 46 1023.0
20210614090057 72 112 2.0 6.0 0.00 0.00 0.00 48 1022.9
20210614084538 69 360 0.0 7.0 0.00 0.00 0.00 51 1023.2
20210614083031 70 73 0.0 4.0 0.00 0.00 0.00 51 1023.1
20210614081559 69 69 1.0 7.0 0.00 0.00 0.00 53 1023.2
20210614080107 69 103 0.0 6.0 0.00 0.00 0.00 53 1023.3
20210614074536 68 153 0.0 4.0 0.00 0.00 0.00 54 1023.3
20210614073017 67 126 1.0 4.0 0.00 0.00 0.00 55 1023.4
20210614071507 66 92 2.0 5.0 0.00 0.00 0.00 56 1023.4
20210614070005 65 115 0.0 3.0 0.00 0.00 0.00 58 1023.5
20210614064736 64 116 0.0 4.0 0.00 0.00 0.00 59 1023.5
20210614063222 64 77 0.0 5.0 0.00 0.00 0.00 60 1023.6
20210614061656 63 119 2.0 8.0 0.00 0.00 0.00 61 1023.6
20210614060158 63 89 0.0 0.0 0.00 0.00 0.00 63 1023.8
20210614054741 61 114 0.0 0.0 0.00 0.00 0.00 65 1023.7
20210614053059 61 62 0.0 3.0 0.00 0.00 0.00 67 1023.7
20210614051625 59 49 0.0 0.0 0.00 0.00 0.00 69 1023.9
20210614050054 56 61 0.0 1.0 0.00 0.00 0.00 80 1023.8
20210614044551 55 136 0.0 0.0 0.00 0.00 0.00 85 1024.0
20210614043024 52 137 0.0 0.0 0.00 0.00 0.00 88 1023.9
20210614041531 50 137 0.0 0.0 0.00 0.00 0.00 89 1024.1
20210614040014 50 137 0.0 0.0 0.00 0.00 0.00 90 1024.1
20210614034510 49 137 0.0 0.0 0.00 0.00 0.00 90 1024.2
20210614033114 49 137 0.0 0.0 0.00 0.00 0.00 89 1024.2
20210614031527 49 137 0.0 0.0 0.00 0.00 0.00 89 1024.3
20210614030006 50 137 0.0 0.0 0.00 0.00 0.00 88 1024.3
20210614024505 50 137 0.0 0.0 0.00 0.00 0.00 88 1024.3
20210614023010 50 137 0.0 0.0 0.00 0.00 0.00 87 1024.3
20210614021809 51 137 0.0 0.0 0.00 0.00 0.00 87 1024.2
20210614020306 51 137 0.0 0.0 0.00 0.00 0.00 85 1024.3
20210614014645 52 137 0.0 0.0 0.00 0.00 0.00 86 1024.4
20210614013120 52 137 0.0 0.0 0.00 0.00 0.00 87 1024.4
20210614011715 52 137 0.0 0.0 0.00 0.00 0.00 86 1024.5
20210614010213 52 137 0.0 0.0 0.00 0.00 0.00 86 1024.7
20210614004640 52 137 0.0 0.0 0.00 0.00 0.00 85 1024.8
20210614003144 53 137 0.0 0.0 0.00 0.00 0.00 85 1024.9
20210614001714 53 94 0.0 0.0 0.00 0.00 0.00 84 1024.9
20210614000151 53 57 0.0 0.0 0.00 0.00 0.00 84 1025.1
20210613234607 53 57 0.0 0.0 0.00 0.00 0.00 84 1025.2
20210613233153 54 57 0.0 0.0 0.00 0.00 0.00 83 1025.2
20210613231625 54 57 0.0 0.0 0.00 0.00 0.00 82 1025.2
20210613230110 55 57 0.0 0.0 0.00 0.00 0.00 81 1025.2
20210613224606 55 57 0.0 0.0 0.00 0.00 0.00 80 1025.2
20210613223057 56 57 0.0 0.0 0.00 0.00 0.00 78 1025.3
20210613221529 57 53 0.0 0.0 0.00 0.00 0.00 75 1025.2
20210613220130 58 55 0.0 0.0 0.00 0.00 0.00 74 1025.2
20210613214551 58 44 0.0 0.0 0.00 0.00 0.00 75 1025.3
20210613213046 58 44 0.0 0.0 0.00 0.00 0.00 74 1025.3
20210613211525 58 306 0.0 0.0 0.00 0.00 0.00 74 1025.2
20210613210022 59 309 0.0 0.0 0.00 0.00 0.00 73 1025.3
20210613204538 59 355 0.0 0.0 0.00 0.00 0.00 75 1025.3
20210613203025 60 355 0.0 0.0 0.00 0.00 0.00 73 1025.3
20210613201542 61 355 0.0 0.0 0.00 0.00 0.00 68 1025.2
20210613200113 63 355 0.0 0.0 0.00 0.00 0.00 65 1025.3
20210613194524 65 355 0.0 0.0 0.00 0.00 0.00 58 1025.1
20210613193023 66 355 0.0 0.0 0.00 0.00 0.00 51 1025.1
20210613191524 68 355 0.0 0.0 0.00 0.00 0.00 46 1025.2
20210613190024 69 355 0.0 0.0 0.00 0.00 0.00 44 1025.2